Time;durP1;ratioP1;P1;durP2;ratioP2;P2;SDS_P1;SDS_P2;PMS_P1;PMS_P2;Temp;Humidity;BMP_temperature;BMP_pressure;BME280_temperature;BME280_humidity;BME280_pressure;Samples;Min_cycle;Max_cycle;Signal;HPM_P1;HPM_P2
2022/12/09 00:01:30;;;;;;;;;;;1.50;99.90;;;;;;5002085;27;19963;-72
2022/12/09 00:03:56;;;;;;;;;;;1.50;99.90;;;;;;4983743;27;20529;-72
2022/12/09 00:06:23;;;;;;;;;;;1.40;99.90;;;;;;5000502;27;20573;-72
2022/12/09 00:08:48;;;;;;;;;;;1.40;99.90;;;;;;5000443;27;19951;-72
2022/12/09 00:11:14;;;;;;;;;;;1.30;99.90;;;;;;5003195;27;19923;-72
2022/12/09 00:13:40;;;;;;;;;;;1.30;99.90;;;;;;5002448;27;19915;-72
2022/12/09 00:16:06;;;;;;;;;;;1.20;99.90;;;;;;4981658;27;19915;-72
2022/12/09 00:18:32;;;;;;;;;;;1.10;99.90;;;;;;4999689;27;19916;-72
2022/12/09 00:20:57;;;;;;;;;;;1.00;99.90;;;;;;5003077;27;20014;-72
2022/12/09 00:23:23;;;;;;;;;;;0.90;99.90;;;;;;5001009;27;19920;-72
2022/12/09 00:25:48;;;;;;;;;;;0.80;99.90;;;;;;5001484;27;19927;-72
2022/12/09 00:28:14;;;;;;;;;;;0.70;99.90;;;;;;5000220;27;19919;-72
2022/12/09 00:30:40;;;;;;;;;;;0.70;99.90;;;;;;5001428;27;20543;-72
2022/12/09 00:33:05;;;;;;;;;;;0.70;99.90;;;;;;4981307;27;20077;-72
2022/12/09 00:35:31;;;;;;;;;;;0.70;99.90;;;;;;5004238;27;19915;-72
2022/12/09 00:37:56;;;;;;;;;;;0.60;99.90;;;;;;4981125;27;19916;-72
2022/12/09 00:40:22;;;;;;;;;;;0.60;99.90;;;;;;5003926;27;19953;-72
2022/12/09 00:42:48;;;;;;;;;;;0.60;99.90;;;;;;5004341;27;19922;-72
2022/12/09 00:45:13;;;;;;;;;;;0.60;99.90;;;;;;5002494;27;20338;-73
2022/12/09 00:47:39;;;;;;;;;;;0.50;99.90;;;;;;5001989;27;20233;-72
2022/12/09 00:50:05;;;;;;;;;;;0.30;99.90;;;;;;5001485;27;20951;-72
2022/12/09 00:52:30;;;;;;;;;;;0.20;99.90;;;;;;4982670;27;21368;-72
2022/12/09 00:54:56;;;;;;;;;;;0.20;99.90;;;;;;5001656;27;24843;-72
2022/12/09 00:57:21;;;;;;;;;;;0.00;99.90;;;;;;5002220;27;19926;-72
2022/12/09 00:59:47;;;;;;;;;;;0.00;99.90;;;;;;4998758;27;19915;-72
2022/12/09 01:02:13;;;;;;;;;;;-0.10;99.90;;;;;;4983206;27;19916;-71
2022/12/09 01:04:38;;;;;;;;;;;-0.10;99.90;;;;;;5001186;27;24145;-73
2022/12/09 01:07:04;;;;;;;;;;;-0.10;99.90;;;;;;4980876;27;21252;-72
2022/12/09 01:09:32;;;;;;;;;;;-0.10;99.90;;;;;;5000604;27;19923;-72
2022/12/09 01:11:57;;;;;;;;;;;-0.10;99.90;;;;;;5001812;27;20375;-72
2022/12/09 01:14:23;;;;;;;;;;;-0.10;99.90;;;;;;5000514;27;19916;-72
2022/12/09 01:16:48;;;;;;;;;;;0.00;99.90;;;;;;5002590;27;19963;-72
2022/12/09 01:19:14;;;;;;;;;;;0.00;99.90;;;;;;4999191;27;19916;-73
2022/12/09 01:21:39;;;;;;;;;;;0.10;99.90;;;;;;4981191;27;21187;-71
2022/12/09 01:24:07;;;;;;;;;;;0.20;99.90;;;;;;4998029;27;19915;-72
2022/12/09 01:26:32;;;;;;;;;;;0.20;99.90;;;;;;4982944;27;19915;-72
2022/12/09 01:28:58;;;;;;;;;;;0.20;99.90;;;;;;4978131;27;20019;-72
2022/12/09 01:31:24;;;;;;;;;;;0.30;99.90;;;;;;4965385;28;19920;-72
2022/12/09 01:33:50;;;;;;;;;;;0.30;99.90;;;;;;5000937;27;20341;-71
2022/12/09 01:36:18;;;;;;;;;;;0.20;99.90;;;;;;5000466;28;19916;-71
2022/12/09 01:38:44;;;;;;;;;;;0.10;99.90;;;;;;4981981;28;20241;-72
2022/12/09 01:41:09;;;;;;;;;;;0.00;99.90;;;;;;5002243;28;24606;-71
2022/12/09 01:43:36;;;;;;;;;;;0.00;99.90;;;;;;5000694;28;19915;-71
2022/12/09 01:46:01;;;;;;;;;;;0.00;99.90;;;;;;4982018;28;20378;-72
2022/12/09 01:48:30;;;;;;;;;;;-0.10;99.90;;;;;;4983247;28;19934;-72
2022/12/09 01:50:59;;;;;;;;;;;-0.10;99.90;;;;;;5002186;28;21184;-72
2022/12/09 01:53:26;;;;;;;;;;;-0.10;99.90;;;;;;5000483;28;19923;-72
2022/12/09 01:55:54;;;;;;;;;;;-0.10;99.90;;;;;;5001545;28;19984;-72
2022/12/09 01:58:20;;;;;;;;;;;0.00;99.90;;;;;;5001847;28;19915;-71
2022/12/09 02:00:46;;;;;;;;;;;-0.10;99.90;;;;;;5000057;28;20008;-71
2022/12/09 02:03:12;;;;;;;;;;;-0.10;99.90;;;;;;4998875;28;19916;-71
2022/12/09 02:05:38;;;;;;;;;;;-0.20;99.90;;;;;;5001442;27;19926;-71
2022/12/09 02:08:05;;;;;;;;;;;-0.30;99.90;;;;;;5003711;27;19927;-72
2022/12/09 02:10:32;;;;;;;;;;;-0.30;99.90;;;;;;5005577;27;19962;-72
2022/12/09 02:12:57;;;;;;;;;;;-0.30;99.90;;;;;;4985726;27;20742;-71
2022/12/09 02:15:27;;;;;;;;;;;-0.30;99.90;;;;;;5003346;27;19916;-71
2022/12/09 02:17:56;;;;;;;;;;;-0.20;99.90;;;;;;5007006;27;20288;-71
2022/12/09 02:20:25;;;;;;;;;;;-0.30;99.90;;;;;;5005570;27;19923;-71
2022/12/09 02:23:03;;;;;;;;;;;-0.40;99.90;;;;;;4985055;27;20615;-71
2022/12/09 02:25:32;;;;;;;;;;;-0.60;99.90;;;;;;5003171;27;20352;-72
2022/12/09 02:28:11;;;;;;;;;;;-0.70;99.90;;;;;;5003215;27;19924;-72
2022/12/09 02:30:47;;;;;;;;;;;-0.70;99.90;;;;;;5003566;27;21106;-71
2022/12/09 02:33:22;;;;;;;;;;;-0.80;99.90;;;;;;5003938;27;19966;-75
2022/12/09 02:36:01;;;;;;;;;;;-0.80;99.90;;;;;;5004688;27;20002;-71
2022/12/09 02:38:30;;;;;;;;;;;-0.80;99.90;;;;;;5003700;27;19915;-72
2022/12/09 02:41:11;;;;;;;;;;;-0.70;99.90;;;;;;5004531;27;19962;-71
2022/12/09 02:43:38;;;;;;;;;;;-0.60;99.90;;;;;;5013959;27;19923;-71
2022/12/09 02:46:05;;;;;;;;;;;-0.60;99.90;;;;;;5003159;27;19919;-71
2022/12/09 02:48:33;;;;;;;;;;;-0.60;99.90;;;;;;5003696;27;19924;-71
2022/12/09 02:51:01;;;;;;;;;;;-0.70;99.90;;;;;;5003819;27;21095;-72
2022/12/09 02:53:26;;;;;;;;;;;-0.70;99.90;;;;;;5002635;27;20294;-71
2022/12/09 02:55:53;;;;;;;;;;;-0.80;99.90;;;;;;4986470;27;20065;-71
2022/12/09 02:58:19;;;;;;;;;;;-0.80;99.90;;;;;;5005842;27;24430;-71
2022/12/09 03:00:44;;;;;;;;;;;-0.80;99.90;;;;;;5003745;27;20092;-71
2022/12/09 03:03:15;;;;;;;;;;;-0.80;99.90;;;;;;5003750;27;20671;-71
2022/12/09 03:05:59;;;;;;;;;;;-0.80;99.90;;;;;;4984871;27;19920;-71
2022/12/09 03:08:44;;;;;;;;;;;-0.90;99.90;;;;;;5005508;27;20057;-71
2022/12/09 03:11:11;;;;;;;;;;;-0.90;99.90;;;;;;5001228;27;19924;-71
2022/12/09 03:13:49;;;;;;;;;;;-0.90;99.90;;;;;;5002842;27;20837;-71
2022/12/09 03:16:14;;;;;;;;;;;-0.90;99.90;;;;;;4983315;27;20412;-71
2022/12/09 03:18:42;;;;;;;;;;;-1.00;99.90;;;;;;5002257;27;20642;-71
2022/12/09 03:21:07;;;;;;;;;;;-1.00;99.90;;;;;;5004833;27;19915;-71
2022/12/09 03:23:34;;;;;;;;;;;-1.10;99.90;;;;;;5004121;27;20036;-72
2022/12/09 03:26:00;;;;;;;;;;;-1.20;99.90;;;;;;5002365;27;20012;-71
2022/12/09 03:28:33;;;;;;;;;;;-1.30;99.90;;;;;;4973786;28;19920;-71
2022/12/09 03:31:02;;;;;;;;;;;-1.40;99.90;;;;;;4963248;28;19928;-71
2022/12/09 03:33:28;;;;;;;;;;;-1.40;99.90;;;;;;4963805;28;19923;-71
2022/12/09 03:35:56;;;;;;;;;;;-1.40;99.90;;;;;;4964073;28;21489;-71
2022/12/09 03:38:22;;;;;;;;;;;-1.40;99.90;;;;;;4963448;28;19923;-71
2022/12/09 03:40:50;;;;;;;;;;;-1.40;99.90;;;;;;4977460;28;19944;-70
2022/12/09 03:43:21;;;;;;;;;;;-1.30;99.90;;;;;;4962333;28;20515;-72
2022/12/09 03:45:47;;;;;;;;;;;-1.30;99.90;;;;;;4962203;28;19939;-71
2022/12/09 03:48:13;;;;;;;;;;;-1.40;99.90;;;;;;4962502;28;20543;-71
2022/12/09 03:50:50;;;;;;;;;;;-1.30;99.90;;;;;;4961298;28;19998;-71
2022/12/09 03:53:20;;;;;;;;;;;-1.40;99.90;;;;;;4958324;28;20578;-71
2022/12/09 03:56:06;;;;;;;;;;;-1.40;99.90;;;;;;4959586;28;21117;-71
2022/12/09 03:58:33;;;;;;;;;;;-1.40;99.90;;;;;;4959325;28;19924;-71
2022/12/09 04:00:59;;;;;;;;;;;-1.50;99.90;;;;;;4960794;28;19944;-70
2022/12/09 04:03:25;;;;;;;;;;;-1.60;99.90;;;;;;4960493;28;20923;-71
2022/12/09 04:05:50;;;;;;;;;;;-1.70;99.90;;;;;;4963369;28;19916;-71
2022/12/09 04:08:16;;;;;;;;;;;-1.70;99.90;;;;;;4959810;28;19922;-71
2022/12/09 04:10:42;;;;;;;;;;;-1.80;99.90;;;;;;4960758;28;19928;-71
2022/12/09 04:13:07;;;;;;;;;;;-1.90;99.90;;;;;;4962836;28;19917;-71
2022/12/09 04:15:33;;;;;;;;;;;-2.00;99.90;;;;;;4963714;28;19920;-71
2022/12/09 04:17:58;;;;;;;;;;;-2.10;99.90;;;;;;4961150;28;19916;-71
2022/12/09 04:20:24;;;;;;;;;;;-2.10;99.90;;;;;;4961593;28;19920;-71
2022/12/09 04:22:49;;;;;;;;;;;-2.20;99.90;;;;;;4967354;28;19924;-71
2022/12/09 04:25:15;;;;;;;;;;;-2.20;99.90;;;;;;4964331;28;20050;-71
2022/12/09 04:27:40;;;;;;;;;;;-2.20;99.90;;;;;;4969444;27;19920;-71
2022/12/09 04:30:07;;;;;;;;;;;-2.20;99.90;;;;;;5000471;27;19957;-70
2022/12/09 04:32:32;;;;;;;;;;;-2.20;99.90;;;;;;5003897;27;19974;-71
2022/12/09 04:34:58;;;;;;;;;;;-2.30;99.90;;;;;;5003647;27;19938;-71
2022/12/09 04:37:23;;;;;;;;;;;-2.30;99.90;;;;;;5003815;27;19926;-71
2022/12/09 04:39:49;;;;;;;;;;;-2.30;99.90;;;;;;5002464;27;19915;-71
2022/12/09 04:42:15;;;;;;;;;;;-2.40;99.90;;;;;;5002947;27;19922;-70
2022/12/09 04:44:40;;;;;;;;;;;-2.40;99.90;;;;;;4999758;27;19924;-70
2022/12/09 04:47:06;;;;;;;;;;;-2.40;99.90;;;;;;5000347;27;19938;-70
2022/12/09 04:49:31;;;;;;;;;;;-2.50;99.90;;;;;;5002303;27;19962;-70
2022/12/09 04:51:57;;;;;;;;;;;-2.50;99.90;;;;;;5004548;27;19927;-70
2022/12/09 04:54:22;;;;;;;;;;;-2.50;99.90;;;;;;4980779;27;19920;-70
2022/12/09 04:56:48;;;;;;;;;;;-2.60;99.90;;;;;;4997058;27;21104;-70
2022/12/09 04:59:14;;;;;;;;;;;-2.60;99.90;;;;;;5001603;27;19922;-70
2022/12/09 05:01:40;;;;;;;;;;;-2.50;99.90;;;;;;5005820;27;20241;-70
2022/12/09 05:04:05;;;;;;;;;;;-2.60;99.90;;;;;;5006664;27;19916;-69
2022/12/09 05:06:31;;;;;;;;;;;-2.60;99.90;;;;;;5005357;27;19966;-70
2022/12/09 05:08:57;;;;;;;;;;;-2.60;99.90;;;;;;5006150;27;19955;-70
2022/12/09 05:11:22;;;;;;;;;;;-2.60;99.90;;;;;;4999469;27;19926;-70
2022/12/09 05:13:48;;;;;;;;;;;-2.70;99.90;;;;;;5002842;27;19922;-70
2022/12/09 05:16:15;;;;;;;;;;;-2.70;99.90;;;;;;4999343;27;19916;-70
2022/12/09 05:18:41;;;;;;;;;;;-2.70;99.90;;;;;;5002473;27;20651;-70
2022/12/09 05:21:07;;;;;;;;;;;-2.80;99.90;;;;;;4999049;27;20729;-70
2022/12/09 05:23:33;;;;;;;;;;;-2.70;99.90;;;;;;5000928;27;20360;-71
2022/12/09 05:26:03;;;;;;;;;;;-2.70;99.90;;;;;;5001103;27;19962;-70
2022/12/09 05:28:29;;;;;;;;;;;-2.80;99.90;;;;;;5003838;27;19927;-70
2022/12/09 05:30:57;;;;;;;;;;;-2.80;99.90;;;;;;4984878;28;20340;-70
2022/12/09 05:33:23;;;;;;;;;;;-2.80;99.90;;;;;;4999776;27;19958;-70
2022/12/09 05:35:48;;;;;;;;;;;-2.90;99.90;;;;;;5019396;27;19915;-70
2022/12/09 05:38:14;;;;;;;;;;;-2.90;99.90;;;;;;5115487;28;19911;-71
2022/12/09 05:40:40;;;;;;;;;;;-2.90;99.90;;;;;;5108649;28;19913;-75
2022/12/09 05:43:05;;;;;;;;;;;-3.00;99.90;;;;;;5102969;28;20318;-71
2022/12/09 05:45:31;;;;;;;;;;;-2.90;99.90;;;;;;5115407;28;19916;-71
2022/12/09 05:47:56;;;;;;;;;;;-3.00;99.90;;;;;;5100590;28;19965;-71
2022/12/09 05:50:22;;;;;;;;;;;-3.00;99.90;;;;;;5095571;28;19924;-71
2022/12/09 05:52:47;;;;;;;;;;;-3.00;99.90;;;;;;5110573;28;20014;-71
2022/12/09 05:55:13;;;;;;;;;;;-3.00;99.90;;;;;;5104137;28;20044;-71
2022/12/09 05:57:38;;;;;;;;;;;-3.00;99.90;;;;;;5110984;28;19949;-71
2022/12/09 06:00:05;;;;;;;;;;;-3.00;99.90;;;;;;5103896;28;19919;-71
2022/12/09 06:02:30;;;;;;;;;;;-3.00;99.90;;;;;;5098747;28;19916;-71
2022/12/09 06:04:56;;;;;;;;;;;-3.00;99.90;;;;;;5115351;28;20360;-71
2022/12/09 06:07:21;;;;;;;;;;;-3.10;99.90;;;;;;5092640;28;19912;-72
2022/12/09 06:09:47;;;;;;;;;;;-3.10;99.90;;;;;;5105965;28;19916;-71
2022/12/09 06:12:12;;;;;;;;;;;-3.10;99.90;;;;;;5105684;28;20199;-71
2022/12/09 06:14:38;;;;;;;;;;;-3.10;99.90;;;;;;5099501;28;19918;-71
2022/12/09 06:17:04;;;;;;;;;;;-3.10;99.90;;;;;;5076892;28;19944;-72
2022/12/09 06:19:29;;;;;;;;;;;-3.20;99.90;;;;;;5107487;28;19908;-71
2022/12/09 06:21:55;;;;;;;;;;;-3.20;99.90;;;;;;5085216;28;19946;-70
2022/12/09 06:24:20;;;;;;;;;;;-3.10;99.90;;;;;;4998052;28;19916;-71
2022/12/09 06:26:46;;;;;;;;;;;-3.10;99.90;;;;;;4979409;28;19915;-71
2022/12/09 06:29:11;;;;;;;;;;;-3.10;99.90;;;;;;4999870;28;19950;-71
2022/12/09 06:31:37;;;;;;;;;;;-3.10;99.90;;;;;;4998681;28;20054;-71
2022/12/09 06:34:03;;;;;;;;;;;-3.20;99.90;;;;;;5001358;28;20936;-75
2022/12/09 06:36:29;;;;;;;;;;;-3.20;99.90;;;;;;5002576;28;19926;-71
2022/12/09 06:38:55;;;;;;;;;;;-3.10;99.90;;;;;;5000002;28;19919;-71
2022/12/09 06:41:21;;;;;;;;;;;-3.10;99.90;;;;;;5000481;28;19920;-71
2022/12/09 06:43:47;;;;;;;;;;;-3.20;99.90;;;;;;4999394;28;19948;-70
2022/12/09 06:46:13;;;;;;;;;;;-3.20;99.90;;;;;;5001445;28;20774;-71
2022/12/09 06:48:39;;;;;;;;;;;-3.20;99.90;;;;;;5000226;28;19923;-71
2022/12/09 06:51:05;;;;;;;;;;;-3.20;99.90;;;;;;4998863;28;19924;-70
2022/12/09 06:53:30;;;;;;;;;;;-3.20;99.90;;;;;;5001928;27;20579;-71
2022/12/09 06:56:00;;;;;;;;;;;-3.20;99.90;;;;;;5003999;27;19920;-71
2022/12/09 06:58:25;;;;;;;;;;;-3.20;99.90;;;;;;5002274;27;21014;-71
2022/12/09 07:00:51;;;;;;;;;;;-3.20;99.90;;;;;;5001042;27;20723;-71
2022/12/09 07:03:16;;;;;;;;;;;-3.20;99.90;;;;;;5001246;27;19916;-71
2022/12/09 07:05:42;;;;;;;;;;;-3.20;99.90;;;;;;5000909;27;19916;-71
2022/12/09 07:08:07;;;;;;;;;;;-3.40;99.90;;;;;;5002207;27;19923;-72
2022/12/09 07:10:34;;;;;;;;;;;-3.40;99.90;;;;;;4981180;27;20057;-70
2022/12/09 07:12:59;;;;;;;;;;;-3.40;99.90;;;;;;5002253;27;20795;-72
2022/12/09 07:15:25;;;;;;;;;;;-3.40;99.90;;;;;;4983212;27;19928;-71
2022/12/09 07:17:50;;;;;;;;;;;-3.40;99.90;;;;;;5000360;27;20302;-71
2022/12/09 07:20:16;;;;;;;;;;;-3.40;99.90;;;;;;5000636;27;20050;-71
2022/12/09 07:22:42;;;;;;;;;;;-3.40;99.90;;;;;;5003669;27;19916;-71
2022/12/09 07:25:07;;;;;;;;;;;-3.40;99.90;;;;;;5003024;27;19916;-71
2022/12/09 07:27:33;;;;;;;;;;;-3.30;99.90;;;;;;4999357;27;19923;-71
2022/12/09 07:29:59;;;;;;;;;;;-3.40;99.90;;;;;;5001676;27;20018;-71
2022/12/09 07:32:24;;;;;;;;;;;-3.40;99.90;;;;;;4982583;27;19920;-71
2022/12/09 07:34:50;;;;;;;;;;;-3.50;99.90;;;;;;5006726;27;21712;-71
2022/12/09 07:37:15;;;;;;;;;;;-3.60;99.90;;;;;;4985284;27;19941;-70
2022/12/09 07:39:41;;;;;;;;;;;-3.60;99.90;;;;;;4983380;27;20874;-70
2022/12/09 07:42:06;;;;;;;;;;;-3.50;99.90;;;;;;5001564;27;19916;-71
2022/12/09 07:44:32;;;;;;;;;;;-3.50;99.90;;;;;;5004129;27;19923;-71
2022/12/09 07:46:57;;;;;;;;;;;-3.40;99.90;;;;;;5002838;27;20014;-75
2022/12/09 07:49:23;;;;;;;;;;;-3.40;99.90;;;;;;5001661;27;20956;-71
2022/12/09 07:51:49;;;;;;;;;;;-3.30;99.90;;;;;;4968596;27;21023;-70
2022/12/09 07:54:17;;;;;;;;;;;-3.20;99.90;;;;;;5000867;27;19951;-71
2022/12/09 07:56:43;;;;;;;;;;;-3.40;99.90;;;;;;4997683;27;20002;-71
2022/12/09 07:59:10;;;;;;;;;;;-3.40;99.90;;;;;;4998628;27;19915;-71
2022/12/09 08:01:37;;;;;;;;;;;-3.40;99.90;;;;;;4999655;27;19915;-71
2022/12/09 08:04:03;;;;;;;;;;;-3.30;99.90;;;;;;4994464;27;19916;-71
2022/12/09 08:06:29;;;;;;;;;;;-3.20;99.90;;;;;;4994470;27;19915;-70
2022/12/09 08:08:59;;;;;;;;;;;-3.20;99.90;;;;;;4977844;27;19916;-72
2022/12/09 08:11:25;;;;;;;;;;;-3.10;99.90;;;;;;4996537;27;19915;-71
2022/12/09 08:13:51;;;;;;;;;;;-3.00;99.90;;;;;;4996978;27;20272;-71
2022/12/09 08:16:18;;;;;;;;;;;-3.00;99.90;;;;;;4998962;27;19926;-72
2022/12/09 08:18:43;;;;;;;;;;;-2.90;99.90;;;;;;4994724;27;20925;-71
2022/12/09 08:21:13;;;;;;;;;;;-2.80;99.90;;;;;;4996434;27;20687;-71
2022/12/09 08:23:39;;;;;;;;;;;-2.80;99.90;;;;;;4997267;27;19916;-71
2022/12/09 08:26:05;;;;;;;;;;;-2.80;99.90;;;;;;4996790;27;20286;-70
2022/12/09 08:28:31;;;;;;;;;;;-2.80;99.90;;;;;;4994666;27;21363;-71
2022/12/09 08:30:57;;;;;;;;;;;-2.70;99.90;;;;;;4973926;27;19963;-70
2022/12/09 08:33:22;;;;;;;;;;;-2.70;99.90;;;;;;4979025;27;19916;-71
2022/12/09 08:35:48;;;;;;;;;;;-2.60;99.90;;;;;;4994944;27;19916;-70
2022/12/09 08:38:13;;;;;;;;;;;-2.60;99.90;;;;;;4995545;27;24424;-72
2022/12/09 08:40:39;;;;;;;;;;;-2.60;99.90;;;;;;4995798;27;19920;-70
2022/12/09 08:43:07;;;;;;;;;;;-2.50;99.90;;;;;;4997129;27;19915;-70
2022/12/09 08:45:39;;;;;;;;;;;-2.30;99.90;;;;;;4992598;27;19994;-71
2022/12/09 08:48:05;;;;;;;;;;;-2.20;99.90;;;;;;4992529;27;20030;-70
2022/12/09 08:50:31;;;;;;;;;;;-2.10;99.90;;;;;;4994128;27;19930;-71
2022/12/09 08:52:57;;;;;;;;;;;-2.00;99.90;;;;;;4993937;27;19963;-71
2022/12/09 08:55:22;;;;;;;;;;;-1.90;99.90;;;;;;4974535;27;19966;-71
2022/12/09 08:57:48;;;;;;;;;;;-1.80;99.90;;;;;;4993997;27;20371;-71
2022/12/09 09:00:14;;;;;;;;;;;-1.70;99.90;;;;;;4990679;27;19916;-72
2022/12/09 09:02:40;;;;;;;;;;;-1.50;99.90;;;;;;4993072;27;20698;-71
2022/12/09 09:05:05;;;;;;;;;;;-1.50;99.90;;;;;;4992946;27;20014;-71
2022/12/09 09:07:31;;;;;;;;;;;-1.40;99.90;;;;;;4993525;27;19916;-71
2022/12/09 09:09:58;;;;;;;;;;;-1.30;99.90;;;;;;4998359;27;20271;-71
2022/12/09 09:12:24;;;;;;;;;;;-1.20;99.90;;;;;;4999178;27;20221;-70
2022/12/09 09:14:51;;;;;;;;;;;-1.10;99.90;;;;;;4993347;27;19926;-71
2022/12/09 09:17:17;;;;;;;;;;;-1.00;99.90;;;;;;4997833;27;19915;-71
2022/12/09 09:19:42;;;;;;;;;;;-0.90;99.90;;;;;;4995461;27;19916;-71
2022/12/09 09:22:08;;;;;;;;;;;-0.80;99.90;;;;;;4990624;27;19962;-71
2022/12/09 09:24:33;;;;;;;;;;;-0.70;99.90;;;;;;4996122;27;19935;-71
2022/12/09 09:26:59;;;;;;;;;;;-0.60;99.90;;;;;;4995161;27;19966;-71
2022/12/09 09:29:24;;;;;;;;;;;-0.50;99.90;;;;;;4994276;27;19938;-71
2022/12/09 09:31:52;;;;;;;;;;;-0.40;99.90;;;;;;4974537;28;19916;-72
2022/12/09 09:34:19;;;;;;;;;;;-0.30;99.90;;;;;;4990989;27;19915;-71
2022/12/09 09:36:44;;;;;;;;;;;-0.30;99.90;;;;;;4995774;27;19916;-72
2022/12/09 09:39:10;;;;;;;;;;;-0.30;99.90;;;;;;4994028;28;19915;-71
2022/12/09 09:41:51;;;;;;;;;;;-0.30;99.90;;;;;;4994420;28;19923;-72
2022/12/09 09:44:35;;;;;;;;;;;-0.30;99.90;;;;;;4995437;28;19916;-72
2022/12/09 09:47:04;;;;;;;;;;;-0.30;99.90;;;;;;4996627;28;19947;-71
2022/12/09 09:49:35;;;;;;;;;;;-0.20;99.90;;;;;;4980037;28;19924;-71
2022/12/09 09:52:03;;;;;;;;;;;-0.10;99.90;;;;;;4991144;28;21108;-71
2022/12/09 09:54:30;;;;;;;;;;;-0.10;99.90;;;;;;4991595;28;20711;-71
2022/12/09 09:56:59;;;;;;;;;;;-0.10;99.90;;;;;;4997648;28;21288;-71
2022/12/09 09:59:31;;;;;;;;;;;0.10;99.90;;;;;;4996104;28;19920;-72
2022/12/09 10:02:00;;;;;;;;;;;0.10;99.90;;;;;;4956688;28;19921;-72
2022/12/09 10:04:34;;;;;;;;;;;0.10;99.90;;;;;;4992860;28;19922;-71
2022/12/09 10:07:03;;;;;;;;;;;0.10;99.90;;;;;;4993600;28;20503;-71
2022/12/09 10:09:36;;;;;;;;;;;0.10;99.90;;;;;;4998139;28;20102;-71
2022/12/09 10:12:14;;;;;;;;;;;0.10;99.90;;;;;;4985638;28;20065;-72
2022/12/09 10:14:46;;;;;;;;;;;0.10;99.90;;;;;;5105133;28;20306;-72
2022/12/09 10:17:18;;;;;;;;;;;0.10;99.90;;;;;;5106084;28;19963;-76
2022/12/09 10:19:46;;;;;;;;;;;0.20;99.90;;;;;;5092676;28;19964;-72
2022/12/09 10:22:16;;;;;;;;;;;0.30;99.90;;;;;;5108030;28;20381;-73
2022/12/09 10:24:53;;;;;;;;;;;0.40;99.90;;;;;;5107210;28;20218;-73
2022/12/09 10:27:31;;;;;;;;;;;0.40;99.90;;;;;;5108273;28;20378;-72
2022/12/09 10:29:58;;;;;;;;;;;0.50;99.90;;;;;;5094280;28;19924;-73
2022/12/09 10:32:25;;;;;;;;;;;0.50;99.90;;;;;;5084265;28;20291;-72
2022/12/09 10:34:50;;;;;;;;;;;0.50;99.90;;;;;;5107162;28;19908;-73
2022/12/09 10:37:36;;;;;;;;;;;0.50;99.90;;;;;;5098677;28;20010;-73
2022/12/09 10:40:22;;;;;;;;;;;0.60;99.90;;;;;;5081423;28;19917;-73
2022/12/09 10:45:44;;;;;;;;;;;0.70;99.90;;;;;;5000442;27;20348;-72
2022/12/09 10:48:28;;;;;;;;;;;0.60;99.90;;;;;;4994341;27;19996;-73
2022/12/09 10:50:59;;;;;;;;;;;0.50;99.90;;;;;;4979533;27;19927;-73
2022/12/09 10:53:25;;;;;;;;;;;0.60;99.90;;;;;;4997569;27;20735;-74
2022/12/09 10:55:51;;;;;;;;;;;0.70;99.90;;;;;;4975440;27;19969;-73
2022/12/09 10:58:17;;;;;;;;;;;0.80;99.90;;;;;;5004382;27;20027;-73
2022/12/09 11:00:56;;;;;;;;;;;0.80;99.90;;;;;;5005677;27;19916;-72
2022/12/09 11:03:27;;;;;;;;;;;0.80;99.90;;;;;;4995001;27;20460;-72
2022/12/09 11:05:57;;;;;;;;;;;0.90;99.90;;;;;;4997537;27;19915;-73
2022/12/09 11:08:23;;;;;;;;;;;0.90;99.90;;;;;;4998528;27;19921;-74
2022/12/09 11:10:49;;;;;;;;;;;1.00;99.90;;;;;;4996927;27;19926;-73
2022/12/09 11:13:16;;;;;;;;;;;1.10;99.90;;;;;;4981017;27;19919;-73
2022/12/09 11:15:44;;;;;;;;;;;1.10;99.90;;;;;;4999137;27;19916;-72
2022/12/09 11:18:18;;;;;;;;;;;1.10;99.90;;;;;;4996350;27;23827;-77
2022/12/09 11:21:04;;;;;;;;;;;1.10;99.90;;;;;;4997542;27;19915;-74
2022/12/09 11:23:30;;;;;;;;;;;1.20;99.90;;;;;;4997514;27;20082;-75
2022/12/09 11:26:03;;;;;;;;;;;1.30;99.90;;;;;;4999575;27;19916;-76
2022/12/09 11:28:29;;;;;;;;;;;1.30;99.90;;;;;;4996674;27;20323;-74
2022/12/09 11:31:21;;;;;;;;;;;1.20;99.90;;;;;;4975412;27;21186;-74
2022/12/09 11:33:49;;;;;;;;;;;1.20;99.90;;;;;;4993426;27;19919;-74
2022/12/09 11:36:30;;;;;;;;;;;1.30;99.90;;;;;;5000543;27;19923;-76
2022/12/09 11:39:22;;;;;;;;;;;1.40;99.90;;;;;;5003283;27;19941;-75
2022/12/09 11:44:34;;;;;;;;;;;1.50;99.90;;;;;;4993908;27;19961;-76
2022/12/09 11:47:03;;;;;;;;;;;1.70;99.90;;;;;;4995239;27;24460;-76
2022/12/09 11:49:30;;;;;;;;;;;1.80;99.90;;;;;;4998266;27;19930;-74
2022/12/09 11:52:00;;;;;;;;;;;1.70;99.90;;;;;;5085598;28;19957;-74
2022/12/09 11:54:32;;;;;;;;;;;1.70;99.90;;;;;;5116272;28;19911;-73
2022/12/09 11:56:58;;;;;;;;;;;1.80;99.90;;;;;;5111553;28;20298;-74
2022/12/09 11:59:36;;;;;;;;;;;1.70;99.90;;;;;;5090498;28;20014;-74
2022/12/09 12:02:19;;;;;;;;;;;1.70;99.90;;;;;;5111110;27;19916;-74
2022/12/09 12:04:47;;;;;;;;;;;1.70;99.90;;;;;;5023416;27;20752;-74
2022/12/09 12:07:16;;;;;;;;;;;1.80;99.90;;;;;;4973853;27;19922;-74
2022/12/09 12:09:45;;;;;;;;;;;1.90;99.90;;;;;;4996603;27;19954;-75
2022/12/09 12:12:11;;;;;;;;;;;2.00;99.90;;;;;;4994625;27;20311;-75
2022/12/09 12:14:37;;;;;;;;;;;2.00;99.90;;;;;;4998163;27;19959;-74
2022/12/09 12:17:05;;;;;;;;;;;2.00;99.90;;;;;;4997019;27;20758;-74
2022/12/09 12:19:34;;;;;;;;;;;1.90;99.90;;;;;;4996072;27;20700;-74
2022/12/09 12:21:59;;;;;;;;;;;1.90;99.90;;;;;;4999528;27;19916;-76
2022/12/09 12:24:44;;;;;;;;;;;1.90;99.90;;;;;;4998381;27;19916;-74
2022/12/09 12:27:09;;;;;;;;;;;1.80;99.90;;;;;;4998366;27;19916;-74
2022/12/09 12:29:44;;;;;;;;;;;1.70;99.90;;;;;;4977160;27;20646;-75
2022/12/09 12:32:19;;;;;;;;;;;1.60;99.90;;;;;;4977853;27;19955;-74
2022/12/09 12:34:51;;;;;;;;;;;1.70;99.90;;;;;;4999224;27;19934;-73
2022/12/09 12:37:37;;;;;;;;;;;1.80;99.90;;;;;;4997417;27;19927;-76
2022/12/09 12:40:06;;;;;;;;;;;1.70;99.90;;;;;;4996368;27;19916;-75
2022/12/09 12:42:35;;;;;;;;;;;1.70;99.90;;;;;;4997135;27;19915;-74
2022/12/09 12:48:07;;;;;;;;;;;1.80;99.90;;;;;;4993713;27;24386;-74
2022/12/09 12:50:41;;;;;;;;;;;1.80;99.90;;;;;;4996851;27;19923;-77
2022/12/09 12:53:15;;;;;;;;;;;1.80;99.90;;;;;;4999293;27;19934;-74
2022/12/09 12:55:41;;;;;;;;;;;1.80;99.90;;;;;;4996971;27;19915;-77
2022/12/09 12:58:09;;;;;;;;;;;1.80;99.90;;;;;;5001835;27;19927;-77
2022/12/09 13:00:49;;;;;;;;;;;1.70;99.90;;;;;;5003293;27;19976;-74
2022/12/09 13:03:23;;;;;;;;;;;1.70;99.90;;;;;;4982817;27;20238;-77
2022/12/09 13:05:50;;;;;;;;;;;1.70;99.90;;;;;;5003329;27;19923;-76
2022/12/09 13:08:34;;;;;;;;;;;1.80;99.90;;;;;;4985060;27;24696;-74
2022/12/09 13:11:03;;;;;;;;;;;1.80;99.90;;;;;;5000503;27;19949;-76
2022/12/09 13:13:35;;;;;;;;;;;1.80;99.90;;;;;;5005883;27;20855;-74
2022/12/09 13:16:21;;;;;;;;;;;1.80;99.90;;;;;;4998459;27;19915;-75
2022/12/09 13:18:48;;;;;;;;;;;1.80;99.90;;;;;;4995950;27;19927;-74
2022/12/09 13:21:14;;;;;;;;;;;1.90;99.90;;;;;;4982677;27;19919;-74
2022/12/09 13:23:58;;;;;;;;;;;1.90;99.90;;;;;;5001499;27;19915;-74
2022/12/09 13:26:25;;;;;;;;;;;1.90;99.90;;;;;;5003146;27;19916;-76
2022/12/09 13:28:55;;;;;;;;;;;1.90;99.90;;;;;;5002579;27;20207;-75
2022/12/09 13:31:24;;;;;;;;;;;1.90;99.90;;;;;;5000450;27;19928;-75
2022/12/09 13:33:56;;;;;;;;;;;1.90;99.90;;;;;;4997978;27;24344;-74
2022/12/09 13:36:31;;;;;;;;;;;1.90;99.90;;;;;;4977588;28;19916;-77
2022/12/09 13:38:57;;;;;;;;;;;1.90;99.90;;;;;;4996511;27;19915;-74
2022/12/09 13:41:25;;;;;;;;;;;1.90;99.90;;;;;;4998709;28;20896;-75
2022/12/09 13:44:05;;;;;;;;;;;1.90;99.90;;;;;;4996928;28;19963;-75
2022/12/09 13:46:31;;;;;;;;;;;1.80;99.90;;;;;;4997845;28;21728;-74
2022/12/09 13:48:56;;;;;;;;;;;1.80;99.90;;;;;;4997176;28;19998;-77
2022/12/09 13:51:22;;;;;;;;;;;1.80;99.90;;;;;;4976746;28;19931;-75
2022/12/09 13:53:58;;;;;;;;;;;1.80;99.90;;;;;;4979974;28;19920;-74
2022/12/09 13:56:27;;;;;;;;;;;1.80;99.90;;;;;;4996737;28;19919;-77
2022/12/09 13:59:11;;;;;;;;;;;1.70;99.90;;;;;;4995344;28;19922;-74
2022/12/09 14:01:59;;;;;;;;;;;1.70;99.90;;;;;;4997505;27;19915;-74
2022/12/09 14:04:26;;;;;;;;;;;1.80;99.90;;;;;;4982031;27;19916;-73
2022/12/09 14:06:58;;;;;;;;;;;1.70;99.90;;;;;;5002262;27;20485;-77
2022/12/09 14:09:42;;;;;;;;;;;1.60;99.90;;;;;;4979325;27;20314;-75
2022/12/09 14:12:17;;;;;;;;;;;1.60;99.90;;;;;;4982362;27;19926;-75
2022/12/09 14:14:43;;;;;;;;;;;1.60;99.90;;;;;;5000320;27;19919;-76
2022/12/09 14:17:31;;;;;;;;;;;1.60;99.90;;;;;;5001757;27;19915;-75
2022/12/09 14:20:16;;;;;;;;;;;1.60;99.90;;;;;;4983352;27;19915;-76
2022/12/09 14:23:00;;;;;;;;;;;1.50;99.90;;;;;;5001480;27;20226;-74
2022/12/09 14:25:32;;;;;;;;;;;1.50;99.90;;;;;;5001983;27;21991;-77
2022/12/09 14:28:19;;;;;;;;;;;1.50;99.90;;;;;;4983942;27;20607;-73
2022/12/09 14:30:49;;;;;;;;;;;1.50;99.90;;;;;;5000958;27;19992;-74
2022/12/09 14:33:20;;;;;;;;;;;1.40;99.90;;;;;;4983251;27;20022;-74
2022/12/09 14:35:47;;;;;;;;;;;1.40;99.90;;;;;;5001209;27;20600;-75
2022/12/09 14:38:22;;;;;;;;;;;1.30;99.90;;;;;;5001559;27;20086;-75
2022/12/09 14:40:57;;;;;;;;;;;1.30;99.90;;;;;;4980550;27;20428;-74